Terminal Aerodrome Forecast
Issued by NWS Mt. Holly, NJ

Current Version | Previous Version | Text Only | Print | Product List | Glossary On
Versions: 1 2 3 4 5 6 7 8 9 10 11 12 13 14 15 16 17 18 19 20 21 22 23 24 25 26 27 28
000
FTAK31 PANC 271740
TAFABE
TAF
PABE 271740Z 2718/2818 13010KT P6SM OVC025
     FM280600 15008KT P6SM VCSH BKN010 OVC030
     FM281000 19008KT P6SM -SN BKN010 OVC030
     FM281200 18008KT 2SM -SN BR OVC005=

USA.gov is the U.S. government's official web portal to all federal, state and local government web resources and services.